^^
Station Historical Data
Daily Summary for February 28, 2017 Units:  Both    English   Metric
« Previous Day
Next Day »
Daily Weekly Monthly Yearly Custom
  High: Low: Average:
Temperature: 84.9 °F /  29.4 °C 65.7 °F /  18.7 °C 72.9 °F /  22.7 °C
Dew Point: 62.6 °F /  17 °C 56.5 °F /  13.6 °C 60 °F /  15.6 °C
Humidity: 84% 40% 66%
Wind Speed: 8.1mph /  13km/h - 1.9mph /  3.1km/h
Wind Gust: 13.0mph /  20.9km/h - -
Wind- - East
Pressure: 29.74 in /  1007 hPa 29.63 in /  1003.3 hPa -
Precipitation: 0.00 in /  0 mm    
Historical Graphs
 
 
Tabular Data for February 28, 2017
Time Temperature Dew Point Pressure Wind Wind Speed Wind Gust Humidity Rainfall Rate (Hourly) solar Conditions
00:03 66.9 °F /  19.4 °C 59.2 °F /  15.1 °C 29.72in /  1006.3hPa Calm     76% 0.00in /  0mm 0.0 W/m2
00:09 66.9 °F /  19.4 °C 59.2 °F /  15.1 °C 29.72in /  1006.3hPa NE 0.9mph /  1.4km/h 2.0mph /  3.2km/h 76% 0.00in /  0mm 0.0 W/m2
00:16 66.9 °F /  19.4 °C 58.8 °F /  14.9 °C 29.72in /  1006.3hPa Calm   3.0mph /  4.8km/h 75% 0.00in /  0mm 0.0 W/m2
00:22 67.1 °F /  19.5 °C 59.4 °F /  15.2 °C 29.72in /  1006.3hPa Calm   2.0mph /  3.2km/h 76% 0.00in /  0mm 0.0 W/m2
00:28 67.1 °F /  19.5 °C 59.4 °F /  15.2 °C 29.72in /  1006.3hPa Calm   1.0mph /  1.6km/h 76% 0.00in /  0mm 0.0 W/m2
00:34 67.1 °F /  19.5 °C 59.4 °F /  15.2 °C 29.72in /  1006.3hPa Calm   1.0mph /  1.6km/h 76% 0.00in /  0mm 0.0 W/m2
00:40 67.1 °F /  19.5 °C 59.4 °F /  15.2 °C 29.72in /  1006.3hPa Calm   2.0mph /  3.2km/h 76% 0.00in /  0mm 0.0 W/m2
00:46 67.3 °F /  19.6 °C 59.5 °F /  15.3 °C 29.72in /  1006.3hPa Calm   2.0mph /  3.2km/h 76% 0.00in /  0mm 0.0 W/m2
00:52 67.3 °F /  19.6 °C 59.5 °F /  15.3 °C 29.72in /  1006.3hPa Calm   1.0mph /  1.6km/h 76% 0.00in /  0mm 0.0 W/m2
00:59 67.3 °F /  19.6 °C 59.5 °F /  15.3 °C 29.72in /  1006.3hPa Calm   1.0mph /  1.6km/h 76% 0.00in /  0mm 0.0 W/m2
01:05 67.3 °F /  19.6 °C 59.5 °F /  15.3 °C 29.71in /  1006hPa Calm     76% 0.00in /  0mm 0.0 W/m2
01:11 67.3 °F /  19.6 °C 59.5 °F /  15.3 °C 29.71in /  1006hPa Calm     76% 0.00in /  0mm 0.0 W/m2
01:17 67.1 °F /  19.5 °C 59.4 °F /  15.2 °C 29.71in /  1006hPa Calm     76% 0.00in /  0mm 0.0 W/m2
01:23 67.1 °F /  19.5 °C 59.4 °F /  15.2 °C 29.71in /  1006hPa Calm     76% 0.00in /  0mm 0.0 W/m2
01:29 67.1 °F /  19.5 °C 59.4 °F /  15.2 °C 29.71in /  1006hPa Calm     76% 0.00in /  0mm 0.0 W/m2
01:35 67.1 °F /  19.5 °C 59.4 °F /  15.2 °C 29.71in /  1006hPa Calm     76% 0.00in /  0mm 0.0 W/m2
01:41 67.3 °F /  19.6 °C 59.5 °F /  15.3 °C 29.71in /  1006hPa Calm     76% 0.00in /  0mm 0.0 W/m2
01:47 67.3 °F /  19.6 °C 59.9 °F /  15.5 °C 29.71in /  1006hPa Calm   1.0mph /  1.6km/h 77% 0.00in /  0mm 0.0 W/m2
01:54 67.3 °F /  19.6 °C 59.9 °F /  15.5 °C 29.70in /  1005.6hPa Calm   1.0mph /  1.6km/h 77% 0.00in /  0mm 0.0 W/m2
02:00 67.3 °F /  19.6 °C 59.9 °F /  15.5 °C 29.70in /  1005.6hPa Calm     77% 0.00in /  0mm 0.0 W/m2
02:06 67.3 °F /  19.6 °C 59.9 °F /  15.5 °C 29.70in /  1005.6hPa Calm     77% 0.00in /  0mm 0.0 W/m2
02:12 67.3 °F /  19.6 °C 59.9 °F /  15.5 °C 29.70in /  1005.6hPa Calm   1.0mph /  1.6km/h 77% 0.00in /  0mm 0.0 W/m2
02:18 67.3 °F /  19.6 °C 59.9 °F /  15.5 °C 29.70in /  1005.6hPa Calm   2.0mph /  3.2km/h 77% 0.00in /  0mm 0.0 W/m2
02:24 67.3 °F /  19.6 °C 59.9 °F /  15.5 °C 29.70in /  1005.6hPa ENE 0.9mph /  1.4km/h 2.0mph /  3.2km/h 77% 0.00in /  0mm 0.0 W/m2
02:30 67.3 °F /  19.6 °C 59.9 °F /  15.5 °C 29.69in /  1005.3hPa Calm   1.0mph /  1.6km/h 77% 0.00in /  0mm 0.0 W/m2
02:37 67.5 °F /  19.7 °C 60.1 °F /  15.6 °C 29.70in /  1005.6hPa Calm     77% 0.00in /  0mm 0.0 W/m2
02:43 67.3 °F /  19.6 °C 59.9 °F /  15.5 °C 29.69in /  1005.3hPa Calm   1.0mph /  1.6km/h 77% 0.00in /  0mm 0.0 W/m2
02:49 67.3 °F /  19.6 °C 59.9 °F /  15.5 °C 29.69in /  1005.3hPa Calm   1.0mph /  1.6km/h 77% 0.00in /  0mm 0.0 W/m2
02:55 67.3 °F /  19.6 °C 59.9 °F /  15.5 °C 29.68in /  1005hPa Calm   1.0mph /  1.6km/h 77% 0.00in /  0mm 0.0 W/m2
03:01 67.3 °F /  19.6 °C 60.3 °F /  15.7 °C 29.68in /  1005hPa Calm   3.0mph /  4.8km/h 78% 0.00in /  0mm 0.0 W/m2
03:07 67.3 °F /  19.6 °C 60.3 °F /  15.7 °C 29.68in /  1005hPa Calm   1.0mph /  1.6km/h 78% 0.00in /  0mm 0.0 W/m2
03:13 67.3 °F /  19.6 °C 60.3 °F /  15.7 °C 29.68in /  1005hPa North 2.0mph /  3.2km/h 3.0mph /  4.8km/h 78% 0.00in /  0mm 0.0 W/m2
03:19 67.3 °F /  19.6 °C 60.3 °F /  15.7 °C 29.67in /  1004.6hPa Calm   2.0mph /  3.2km/h 78% 0.00in /  0mm 0.0 W/m2
03:26 67.1 °F /  19.5 °C 60.4 °F /  15.8 °C 29.67in /  1004.6hPa Calm   1.0mph /  1.6km/h 79% 0.00in /  0mm 0.0 W/m2
03:32 66.9 °F /  19.4 °C 60.3 °F /  15.7 °C 29.67in /  1004.6hPa ENE 2.0mph /  3.2km/h 2.0mph /  3.2km/h 79% 0.00in /  0mm 0.0 W/m2
03:38 66.9 °F /  19.4 °C 60.6 °F /  15.9 °C 29.67in /  1004.6hPa East 2.0mph /  3.2km/h 4.0mph /  6.4km/h 80% 0.00in /  0mm 0.0 W/m2
03:44 66.9 °F /  19.4 °C 60.6 °F /  15.9 °C 29.67in /  1004.6hPa Calm   1.0mph /  1.6km/h 80% 0.00in /  0mm 0.0 W/m2
03:50 66.7 °F /  19.3 °C 60.8 °F /  16 °C 29.67in /  1004.6hPa East 0.9mph /  1.4km/h 2.0mph /  3.2km/h 81% 0.00in /  0mm 0.0 W/m2
03:56 66.7 °F /  19.3 °C 60.8 °F /  16 °C 29.67in /  1004.6hPa ESE 0.9mph /  1.4km/h 3.0mph /  4.8km/h 81% 0.00in /  0mm 0.0 W/m2
04:03 66.7 °F /  19.3 °C 60.8 °F /  16 °C 29.67in /  1004.6hPa Calm   5.0mph /  8km/h 81% 0.00in /  0mm 0.0 W/m2
04:09 66.7 °F /  19.3 °C 60.8 °F /  16 °C 29.67in /  1004.6hPa Calm   1.0mph /  1.6km/h 81% 0.00in /  0mm 0.0 W/m2
04:15 66.6 °F /  19.2 °C 60.6 °F /  15.9 °C 29.67in /  1004.6hPa Calm   2.0mph /  3.2km/h 81% 0.00in /  0mm 0.0 W/m2
04:21 66.6 °F /  19.2 °C 61.0 °F /  16.1 °C 29.66in /  1004.3hPa Calm   5.0mph /  8km/h 82% 0.00in /  0mm 0.0 W/m2
04:27 66.6 °F /  19.2 °C 61.0 °F /  16.1 °C 29.66in /  1004.3hPa Calm   6.0mph /  9.7km/h 82% 0.00in /  0mm 0.0 W/m2
04:33 66.6 °F /  19.2 °C 61.0 °F /  16.1 °C 29.66in /  1004.3hPa East 0.9mph /  1.4km/h 4.0mph /  6.4km/h 82% 0.00in /  0mm 0.0 W/m2
04:39 66.6 °F /  19.2 °C 61.0 °F /  16.1 °C 29.66in /  1004.3hPa ENE 0.9mph /  1.4km/h 4.0mph /  6.4km/h 82% 0.00in /  0mm 0.0 W/m2
04:45 66.4 °F /  19.1 °C 61.0 °F /  16.1 °C 29.66in /  1004.3hPa Calm   4.0mph /  6.4km/h 83% 0.00in /  0mm 0.0 W/m2
04:51 66.4 °F /  19.1 °C 61.0 °F /  16.1 °C 29.66in /  1004.3hPa Calm   2.0mph /  3.2km/h 83% 0.00in /  0mm 0.0 W/m2
04:58 66.4 °F /  19.1 °C 61.0 °F /  16.1 °C 29.66in /  1004.3hPa ENE 0.9mph /  1.4km/h 3.0mph /  4.8km/h 83% 0.00in /  0mm 0.0 W/m2
05:10 66.2 °F /  19 °C 60.8 °F /  16 °C 29.66in /  1004.3hPa Calm   2.0mph /  3.2km/h 83% 0.00in /  0mm 0.0 W/m2
05:16 66.2 °F /  19 °C 60.8 °F /  16 °C 29.66in /  1004.3hPa Calm   2.0mph /  3.2km/h 83% 0.00in /  0mm 0.0 W/m2
05:22 66.0 °F /  18.9 °C 60.6 °F /  15.9 °C 29.66in /  1004.3hPa NE 4.0mph /  6.4km/h 4.0mph /  6.4km/h 83% 0.00in /  0mm 0.0 W/m2
05:28 66.0 °F /  18.9 °C 61.0 °F /  16.1 °C 29.66in /  1004.3hPa Calm   2.0mph /  3.2km/h 84% 0.00in /  0mm 0.0 W/m2
05:35 65.8 °F /  18.8 °C 60.8 °F /  16 °C 29.66in /  1004.3hPa Calm   4.0mph /  6.4km/h 84% 0.00in /  0mm 0.0 W/m2
05:41 65.8 °F /  18.8 °C 60.8 °F /  16 °C 29.66in /  1004.3hPa East 0.9mph /  1.4km/h 2.0mph /  3.2km/h 84% 0.00in /  0mm 0.0 W/m2
05:47 65.7 °F /  18.7 °C 60.6 °F /  15.9 °C 29.66in /  1004.3hPa ENE 2.9mph /  4.7km/h 5.0mph /  8km/h 84% 0.00in /  0mm 0.0 W/m2
05:53 65.7 °F /  18.7 °C 60.6 °F /  15.9 °C 29.67in /  1004.6hPa Calm   2.0mph /  3.2km/h 84% 0.00in /  0mm 0.0 W/m2
05:59 65.7 °F /  18.7 °C 60.6 °F /  15.9 °C 29.67in /  1004.6hPa East 0.9mph /  1.4km/h 3.0mph /  4.8km/h 84% 0.00in /  0mm 0.0 W/m2
06:05 65.7 °F /  18.7 °C 60.6 °F /  15.9 °C 29.67in /  1004.6hPa SE 2.9mph /  4.7km/h 4.0mph /  6.4km/h 84% 0.00in /  0mm 0.0 W/m2
06:11 65.7 °F /  18.7 °C 60.6 °F /  15.9 °C 29.67in /  1004.6hPa Calm   3.0mph /  4.8km/h 84% 0.00in /  0mm 0.0 W/m2
06:17 65.7 °F /  18.7 °C 60.6 °F /  15.9 °C 29.67in /  1004.6hPa Calm   2.0mph /  3.2km/h 84% 0.00in /  0mm 0.0 W/m2
06:23 65.8 °F /  18.8 °C 60.8 °F /  16 °C 29.67in /  1004.6hPa NE 0.9mph /  1.4km/h 5.0mph /  8km/h 84% 0.00in /  0mm 0.0 W/m2
06:30 65.8 °F /  18.8 °C 60.8 °F /  16 °C 29.67in /  1004.6hPa Calm   3.0mph /  4.8km/h 84% 0.00in /  0mm 0.0 W/m2
06:36 65.8 °F /  18.8 °C 60.6 °F /  15.9 °C 29.68in /  1005hPa Calm   3.0mph /  4.8km/h 83% 0.00in /  0mm 0.0 W/m2
06:42 65.8 °F /  18.8 °C 60.6 °F /  15.9 °C 29.68in /  1005hPa East 2.0mph /  3.2km/h 6.0mph /  9.7km/h 83% 0.00in /  0mm 0.0 W/m2
06:48 65.8 °F /  18.8 °C 60.3 °F /  15.7 °C 29.68in /  1005hPa Calm   3.0mph /  4.8km/h 82% 0.00in /  0mm 5.0 W/m2
06:54 65.8 °F /  18.8 °C 60.3 °F /  15.7 °C 29.68in /  1005hPa Calm   4.0mph /  6.4km/h 82% 0.00in /  0mm 11.0 W/m2
07:00 65.8 °F /  18.8 °C 60.3 °F /  15.7 °C 29.68in /  1005hPa ESE 2.0mph /  3.2km/h 6.0mph /  9.7km/h 82% 0.00in /  0mm 14.0 W/m2
07:06 65.8 °F /  18.8 °C 60.3 °F /  15.7 °C 29.69in /  1005.3hPa ENE 0.9mph /  1.4km/h 5.0mph /  8km/h 82% 0.00in /  0mm 25.0 W/m2
07:12 66.0 °F /  18.9 °C 60.4 °F /  15.8 °C 29.69in /  1005.3hPa Calm   5.0mph /  8km/h 82% 0.00in /  0mm 33.0 W/m2
07:19 66.0 °F /  18.9 °C 60.4 °F /  15.8 °C 29.69in /  1005.3hPa East 4.0mph /  6.4km/h 4.0mph /  6.4km/h 82% 0.00in /  0mm 40.0 W/m2
07:25 66.0 °F /  18.9 °C 60.4 °F /  15.8 °C 29.69in /  1005.3hPa Calm   3.0mph /  4.8km/h 82% 0.00in /  0mm 49.0 W/m2
07:31 66.4 °F /  19.1 °C 60.8 °F /  16 °C 29.69in /  1005.3hPa ENE 0.9mph /  1.4km/h 3.0mph /  4.8km/h 82% 0.00in /  0mm 65.0 W/m2
07:37 66.4 °F /  19.1 °C 60.8 °F /  16 °C 29.70in /  1005.6hPa Calm   1.0mph /  1.6km/h 82% 0.00in /  0mm 72.0 W/m2
07:43 66.6 °F /  19.2 °C 60.6 °F /  15.9 °C 29.70in /  1005.6hPa Calm   3.0mph /  4.8km/h 81% 0.00in /  0mm 69.0 W/m2
07:49 66.6 °F /  19.2 °C 60.6 °F /  15.9 °C 29.70in /  1005.6hPa NE 4.0mph /  6.4km/h 5.0mph /  8km/h 81% 0.00in /  0mm 67.0 W/m2
07:55 66.7 °F /  19.3 °C 60.8 °F /  16 °C 29.70in /  1005.6hPa Calm   3.0mph /  4.8km/h 81% 0.00in /  0mm 60.0 W/m2
08:01 66.9 °F /  19.4 °C 60.6 °F /  15.9 °C 29.70in /  1005.6hPa ENE 2.9mph /  4.7km/h 4.0mph /  6.4km/h 80% 0.00in /  0mm 69.0 W/m2
08:08 67.1 °F /  19.5 °C 60.8 °F /  16 °C 29.70in /  1005.6hPa ENE 0.9mph /  1.4km/h 6.0mph /  9.7km/h 80% 0.00in /  0mm 98.0 W/m2
08:14 67.3 °F /  19.6 °C 60.6 °F /  15.9 °C 29.71in /  1006hPa East 4.9mph /  7.9km/h 6.0mph /  9.7km/h 79% 0.00in /  0mm 93.0 W/m2
08:20 67.5 °F /  19.7 °C 60.8 °F /  16 °C 29.71in /  1006hPa East 2.9mph /  4.7km/h 5.0mph /  8km/h 79% 0.00in /  0mm 88.0 W/m2
08:26 67.5 °F /  19.7 °C 59.5 °F /  15.3 °C 29.71in /  1006hPa ESE 2.9mph /  4.7km/h 6.0mph /  9.7km/h 76% 0.00in /  0mm 132.0 W/m2
08:32 67.8 °F /  19.9 °C 59.9 °F /  15.5 °C 29.71in /  1006hPa NE 4.0mph /  6.4km/h 7.0mph /  11.3km/h 76% 0.00in /  0mm 134.0 W/m2
08:38 68.2 °F /  20.1 °C 59.9 °F /  15.5 °C 29.71in /  1006hPa ENE 6.9mph /  11.1km/h 7.0mph /  11.3km/h 75% 0.00in /  0mm 155.0 W/m2
08:44 68.5 °F /  20.3 °C 60.6 °F /  15.9 °C 29.72in /  1006.3hPa NE 2.9mph /  4.7km/h 7.0mph /  11.3km/h 76% 0.00in /  0mm 139.0 W/m2
08:51 68.9 °F /  20.5 °C 60.6 °F /  15.9 °C 29.71in /  1006hPa ENE 0.9mph /  1.4km/h 7.0mph /  11.3km/h 75% 0.00in /  0mm 128.0 W/m2
08:57 69.1 °F /  20.6 °C 60.8 °F /  16 °C 29.71in /  1006hPa NE 0.9mph /  1.4km/h 7.0mph /  11.3km/h 75% 0.00in /  0mm 267.0 W/m2
09:03 69.3 °F /  20.7 °C 60.6 °F /  15.9 °C 29.72in /  1006.3hPa East 2.9mph /  4.7km/h 9.0mph /  14.5km/h 74% 0.00in /  0mm 163.0 W/m2
09:09 69.4 °F /  20.8 °C 60.8 °F /  16 °C 29.72in /  1006.3hPa NNE 2.0mph /  3.2km/h 7.0mph /  11.3km/h 74% 0.00in /  0mm 216.0 W/m2
09:15 69.4 °F /  20.8 °C 60.8 °F /  16 °C 29.72in /  1006.3hPa ENE 4.9mph /  7.9km/h 6.0mph /  9.7km/h 74% 0.00in /  0mm 183.0 W/m2
09:21 69.4 °F /  20.8 °C 60.8 °F /  16 °C 29.72in /  1006.3hPa East 2.0mph /  3.2km/h 7.0mph /  11.3km/h 74% 0.00in /  0mm 206.0 W/m2
09:27 69.4 °F /  20.8 °C 60.8 °F /  16 °C 29.72in /  1006.3hPa NE 2.0mph /  3.2km/h 9.0mph /  14.5km/h 74% 0.00in /  0mm 214.0 W/m2
09:33 69.4 °F /  20.8 °C 60.4 °F /  15.8 °C 29.72in /  1006.3hPa NNE 2.9mph /  4.7km/h 7.0mph /  11.3km/h 73% 0.00in /  0mm 301.0 W/m2
09:39 69.6 °F /  20.9 °C 61.0 °F /  16.1 °C 29.72in /  1006.3hPa ENE 0.9mph /  1.4km/h 5.0mph /  8km/h 74% 0.00in /  0mm 232.0 W/m2
09:46 70.0 °F /  21.1 °C 61.0 °F /  16.1 °C 29.72in /  1006.3hPa NNE 6.0mph /  9.7km/h 6.0mph /  9.7km/h 73% 0.00in /  0mm 353.0 W/m2
09:52 70.7 °F /  21.5 °C 60.8 °F /  16 °C 29.72in /  1006.3hPa ESE 2.9mph /  4.7km/h 3.0mph /  4.8km/h 71% 0.00in /  0mm 564.0 W/m2
09:58 71.4 °F /  21.9 °C 60.8 °F /  16 °C 29.72in /  1006.3hPa East 4.9mph /  7.9km/h 5.0mph /  8km/h 69% 0.00in /  0mm 679.0 W/m2
10:04 72.0 °F /  22.2 °C 59.9 °F /  15.5 °C 29.72in /  1006.3hPa NE 4.0mph /  6.4km/h 7.0mph /  11.3km/h 66% 0.00in /  0mm 294.0 W/m2
10:10 72.3 °F /  22.4 °C 60.3 °F /  15.7 °C 29.72in /  1006.3hPa NE 8.1mph /  13km/h 11.0mph /  17.7km/h 66% 0.00in /  0mm 506.0 W/m2
10:16 72.7 °F /  22.6 °C 60.6 °F /  15.9 °C 29.72in /  1006.3hPa East 4.0mph /  6.4km/h 7.0mph /  11.3km/h 66% 0.00in /  0mm 800.0 W/m2
10:22 73.0 °F /  22.8 °C 61.0 °F /  16.1 °C 29.72in /  1006.3hPa East 4.9mph /  7.9km/h 6.0mph /  9.7km/h 66% 0.00in /  0mm 353.0 W/m2
10:28 73.4 °F /  23 °C 60.4 °F /  15.8 °C 29.72in /  1006.3hPa ENE 6.9mph /  11.1km/h 9.0mph /  14.5km/h 64% 0.00in /  0mm 728.0 W/m2
10:35 73.9 °F /  23.3 °C 60.6 °F /  15.9 °C 29.72in /  1006.3hPa NNE 2.9mph /  4.7km/h 8.0mph /  12.9km/h 63% 0.00in /  0mm 775.0 W/m2
10:41 74.5 °F /  23.6 °C 60.6 °F /  15.9 °C 29.72in /  1006.3hPa NE 6.0mph /  9.7km/h 9.0mph /  14.5km/h 62% 0.00in /  0mm 304.0 W/m2
10:47 74.5 °F /  23.6 °C 59.7 °F /  15.4 °C 29.72in /  1006.3hPa NE 4.0mph /  6.4km/h 10.0mph /  16.1km/h 60% 0.00in /  0mm 793.0 W/m2
10:53 74.7 °F /  23.7 °C 60.3 °F /  15.7 °C 29.72in /  1006.3hPa NNE 2.9mph /  4.7km/h 8.0mph /  12.9km/h 61% 0.00in /  0mm 916.0 W/m2
10:59 75.4 °F /  24.1 °C 60.4 °F /  15.8 °C 29.72in /  1006.3hPa NE 2.9mph /  4.7km/h 10.0mph /  16.1km/h 60% 0.00in /  0mm 863.0 W/m2
11:05 75.9 °F /  24.4 °C 60.6 °F /  15.9 °C 29.72in /  1006.3hPa NNE 2.9mph /  4.7km/h 7.0mph /  11.3km/h 59% 0.00in /  0mm 849.0 W/m2
11:11 76.3 °F /  24.6 °C 59.9 °F /  15.5 °C 29.72in /  1006.3hPa NNE 6.0mph /  9.7km/h 7.0mph /  11.3km/h 57% 0.00in /  0mm 364.0 W/m2
11:17 76.3 °F /  24.6 °C 59.9 °F /  15.5 °C 29.72in /  1006.3hPa NNE 4.9mph /  7.9km/h 8.0mph /  12.9km/h 57% 0.00in /  0mm 294.0 W/m2
11:23 76.3 °F /  24.6 °C 59.9 °F /  15.5 °C 29.72in /  1006.3hPa ENE 0.9mph /  1.4km/h 7.0mph /  11.3km/h 57% 0.00in /  0mm 424.0 W/m2
11:30 76.6 °F /  24.8 °C 60.3 °F /  15.7 °C 29.72in /  1006.3hPa East 4.0mph /  6.4km/h 10.0mph /  16.1km/h 57% 0.00in /  0mm 1037.0 W/m2
11:36 76.8 °F /  24.9 °C 59.9 °F /  15.5 °C 29.72in /  1006.3hPa East 4.0mph /  6.4km/h 6.0mph /  9.7km/h 56% 0.00in /  0mm 373.0 W/m2
11:42 76.6 °F /  24.8 °C 60.3 °F /  15.7 °C 29.71in /  1006hPa Calm   5.0mph /  8km/h 57% 0.00in /  0mm 385.0 W/m2
11:48 76.8 °F /  24.9 °C 60.4 °F /  15.8 °C 29.71in /  1006hPa ENE 6.9mph /  11.1km/h 9.0mph /  14.5km/h 57% 0.00in /  0mm 399.0 W/m2
11:54 76.8 °F /  24.9 °C 59.9 °F /  15.5 °C 29.71in /  1006hPa North 2.9mph /  4.7km/h 7.0mph /  11.3km/h 56% 0.00in /  0mm 378.0 W/m2
12:00 76.8 °F /  24.9 °C 59.0 °F /  15 °C 29.71in /  1006hPa North 8.1mph /  13km/h 8.1mph /  13km/h 54% 0.00in /  0mm 304.0 W/m2
12:07 76.8 °F /  24.9 °C 59.4 °F /  15.2 °C 29.71in /  1006hPa ESE 2.0mph /  3.2km/h 5.0mph /  8km/h 55% 0.00in /  0mm 322.0 W/m2
12:12 77.0 °F /  25 °C 60.1 °F /  15.6 °C 29.70in /  1005.6hPa SSE 4.0mph /  6.4km/h 5.0mph /  8km/h 56% 0.00in /  0mm 974.0 W/m2
12:19 77.7 °F /  25.4 °C 59.7 °F /  15.4 °C 29.70in /  1005.6hPa NE 0.9mph /  1.4km/h 3.0mph /  4.8km/h 54% 0.00in /  0mm 346.0 W/m2
12:25 78.4 °F /  25.8 °C 59.4 °F /  15.2 °C 29.70in /  1005.6hPa ENE 4.9mph /  7.9km/h 10.0mph /  16.1km/h 52% 0.00in /  0mm 972.0 W/m2
12:31 79.2 °F /  26.2 °C 59.5 °F /  15.3 °C 29.70in /  1005.6hPa NNE 6.9mph /  11.1km/h 8.0mph /  12.9km/h 51% 0.00in /  0mm 882.0 W/m2
12:37 79.3 °F /  26.3 °C 60.3 °F /  15.7 °C 29.70in /  1005.6hPa NE 4.0mph /  6.4km/h 7.0mph /  11.3km/h 52% 0.00in /  0mm 940.0 W/m2
12:43 79.5 °F /  26.4 °C 59.2 °F /  15.1 °C 29.70in /  1005.6hPa East 4.0mph /  6.4km/h 8.0mph /  12.9km/h 50% 0.00in /  0mm 919.0 W/m2
12:49 80.2 °F /  26.8 °C 57.6 °F /  14.2 °C 29.70in /  1005.6hPa NNE 2.0mph /  3.2km/h 12.0mph /  19.3km/h 46% 0.00in /  0mm 953.0 W/m2
12:55 80.6 °F /  27 °C 57.9 °F /  14.4 °C 29.70in /  1005.6hPa NE 0.9mph /  1.4km/h 8.0mph /  12.9km/h 46% 0.00in /  0mm 928.0 W/m2
13:01 81.1 °F /  27.3 °C 57.2 °F /  14 °C 29.70in /  1005.6hPa ESE 0.9mph /  1.4km/h 10.0mph /  16.1km/h 44% 0.00in /  0mm 995.0 W/m2
13:08 81.3 °F /  27.4 °C 57.4 °F /  14.1 °C 29.70in /  1005.6hPa NE 4.9mph /  7.9km/h 11.0mph /  17.7km/h 44% 0.00in /  0mm 362.0 W/m2
13:14 81.0 °F /  27.2 °C 58.3 °F /  14.6 °C 29.69in /  1005.3hPa ESE 2.9mph /  4.7km/h 5.0mph /  8km/h 46% 0.00in /  0mm 359.0 W/m2
13:20 80.4 °F /  26.9 °C 58.3 °F /  14.6 °C 29.69in /  1005.3hPa East 0.9mph /  1.4km/h 3.0mph /  4.8km/h 47% 0.00in /  0mm 984.0 W/m2
13:26 81.0 °F /  27.2 °C 57.0 °F /  13.9 °C 29.69in /  1005.3hPa SSE 2.0mph /  3.2km/h 6.0mph /  9.7km/h 44% 0.00in /  0mm 1020.0 W/m2
13:32 81.0 °F /  27.2 °C 58.3 °F /  14.6 °C 29.69in /  1005.3hPa East 0.9mph /  1.4km/h 10.0mph /  16.1km/h 46% 0.00in /  0mm 912.0 W/m2
13:38 81.0 °F /  27.2 °C 58.8 °F /  14.9 °C 29.68in /  1005hPa East 4.0mph /  6.4km/h 5.0mph /  8km/h 47% 0.00in /  0mm 1139.0 W/m2
13:44 81.9 °F /  27.7 °C 58.5 °F /  14.7 °C 29.68in /  1005hPa SE 2.9mph /  4.7km/h 7.0mph /  11.3km/h 45% 0.00in /  0mm 1209.0 W/m2
13:51 82.6 °F /  28.1 °C 57.2 °F /  14 °C 29.67in /  1004.6hPa ENE 0.9mph /  1.4km/h 6.0mph /  9.7km/h 42% 0.00in /  0mm 1192.0 W/m2
13:57 83.1 °F /  28.4 °C 57.6 °F /  14.2 °C 29.68in /  1005hPa ENE 4.0mph /  6.4km/h 7.0mph /  11.3km/h 42% 0.00in /  0mm 355.0 W/m2
14:03 83.5 °F /  28.6 °C 57.9 °F /  14.4 °C 29.67in /  1004.6hPa SE 2.9mph /  4.7km/h 6.0mph /  9.7km/h 42% 0.00in /  0mm 322.0 W/m2
14:09 82.9 °F /  28.3 °C 56.8 °F /  13.8 °C 29.67in /  1004.6hPa SSE 4.9mph /  7.9km/h 7.0mph /  11.3km/h 41% 0.00in /  0mm 290.0 W/m2
14:15 82.0 °F /  27.8 °C 56.7 °F /  13.7 °C 29.67in /  1004.6hPa East 2.0mph /  3.2km/h 8.0mph /  12.9km/h 42% 0.00in /  0mm 283.0 W/m2
14:21 81.3 °F /  27.4 °C 57.4 °F /  14.1 °C 29.67in /  1004.6hPa East 2.0mph /  3.2km/h 6.0mph /  9.7km/h 44% 0.00in /  0mm 267.0 W/m2
14:27 81.1 °F /  27.3 °C 57.2 °F /  14 °C 29.67in /  1004.6hPa NNE 0.9mph /  1.4km/h 5.0mph /  8km/h 44% 0.00in /  0mm 294.0 W/m2
14:34 81.0 °F /  27.2 °C 57.6 °F /  14.2 °C 29.67in /  1004.6hPa East 2.0mph /  3.2km/h 6.0mph /  9.7km/h 45% 0.00in /  0mm 183.0 W/m2
14:40 80.8 °F /  27.1 °C 57.4 °F /  14.1 °C 29.66in /  1004.3hPa NE 4.9mph /  7.9km/h 7.0mph /  11.3km/h 45% 0.00in /  0mm 257.0 W/m2
14:46 80.4 °F /  26.9 °C 57.2 °F /  14 °C 29.66in /  1004.3hPa SE 4.0mph /  6.4km/h 7.0mph /  11.3km/h 45% 0.00in /  0mm 309.0 W/m2
14:54 80.4 °F /  26.9 °C 58.3 °F /  14.6 °C 29.66in /  1004.3hPa ESE 0.9mph /  1.4km/h 7.0mph /  11.3km/h 47% 0.00in /  0mm 367.0 W/m2
14:59 80.6 °F /  27 °C 57.4 °F /  14.1 °C 29.66in /  1004.3hPa SE 2.9mph /  4.7km/h 6.0mph /  9.7km/h 45% 0.00in /  0mm 323.0 W/m2
15:04 80.8 °F /  27.1 °C 56.8 °F /  13.8 °C 29.66in /  1004.3hPa ENE 2.0mph /  3.2km/h 7.0mph /  11.3km/h 44% 0.00in /  0mm 353.0 W/m2
15:10 81.1 °F /  27.3 °C 57.7 °F /  14.3 °C 29.65in /  1003.9hPa ENE 4.0mph /  6.4km/h 5.0mph /  8km/h 45% 0.00in /  0mm 540.0 W/m2
15:16 81.5 °F /  27.5 °C 58.1 °F /  14.5 °C 29.65in /  1003.9hPa South 0.9mph /  1.4km/h 4.0mph /  6.4km/h 45% 0.00in /  0mm 399.0 W/m2
15:23 81.9 °F /  27.7 °C 58.5 °F /  14.7 °C 29.65in /  1003.9hPa ESE 6.9mph /  11.1km/h 7.0mph /  11.3km/h 45% 0.00in /  0mm 512.0 W/m2
15:29 82.2 °F /  27.9 °C 58.1 °F /  14.5 °C 29.65in /  1003.9hPa SSE 2.9mph /  4.7km/h 3.0mph /  4.8km/h 44% 0.00in /  0mm 492.0 W/m2
15:35 82.2 °F /  27.9 °C 58.1 °F /  14.5 °C 29.65in /  1003.9hPa East 2.9mph /  4.7km/h 6.0mph /  9.7km/h 44% 0.00in /  0mm 367.0 W/m2
15:41 82.0 °F /  27.8 °C 59.2 °F /  15.1 °C 29.65in /  1003.9hPa Calm   6.0mph /  9.7km/h 46% 0.00in /  0mm 232.0 W/m2
15:47 81.9 °F /  27.7 °C 59.0 °F /  15 °C 29.65in /  1003.9hPa Calm   3.0mph /  4.8km/h 46% 0.00in /  0mm 294.0 W/m2
15:53 81.9 °F /  27.7 °C 58.5 °F /  14.7 °C 29.65in /  1003.9hPa NE 6.0mph /  9.7km/h 7.0mph /  11.3km/h 45% 0.00in /  0mm 427.0 W/m2
15:59 81.9 °F /  27.7 °C 58.5 °F /  14.7 °C 29.65in /  1003.9hPa ENE 0.9mph /  1.4km/h 7.0mph /  11.3km/h 45% 0.00in /  0mm 485.0 W/m2
16:05 82.2 °F /  27.9 °C 58.1 °F /  14.5 °C 29.65in /  1003.9hPa North 4.0mph /  6.4km/h 5.0mph /  8km/h 44% 0.00in /  0mm 566.0 W/m2
16:12 82.6 °F /  28.1 °C 58.5 °F /  14.7 °C 29.64in /  1003.6hPa Calm   5.0mph /  8km/h 44% 0.00in /  0mm 557.0 W/m2
16:18 82.8 °F /  28.2 °C 57.9 °F /  14.4 °C 29.64in /  1003.6hPa ENE 0.9mph /  1.4km/h 6.0mph /  9.7km/h 43% 0.00in /  0mm 446.0 W/m2
16:24 82.6 °F /  28.1 °C 57.2 °F /  14 °C 29.65in /  1003.9hPa SW 0.9mph /  1.4km/h 9.0mph /  14.5km/h 42% 0.00in /  0mm 369.0 W/m2
16:30 82.2 °F /  27.9 °C 57.6 °F /  14.2 °C 29.64in /  1003.6hPa ESE 4.0mph /  6.4km/h 4.0mph /  6.4km/h 43% 0.00in /  0mm 267.0 W/m2
16:36 82.0 °F /  27.8 °C 57.4 °F /  14.1 °C 29.64in /  1003.6hPa East 4.9mph /  7.9km/h 7.0mph /  11.3km/h 43% 0.00in /  0mm 292.0 W/m2
16:42 81.9 °F /  27.7 °C 57.7 °F /  14.3 °C 29.64in /  1003.6hPa SE 2.9mph /  4.7km/h 4.0mph /  6.4km/h 44% 0.00in /  0mm 230.0 W/m2
16:48 81.3 °F /  27.4 °C 57.4 °F /  14.1 °C 29.64in /  1003.6hPa SSE 4.0mph /  6.4km/h 6.0mph /  9.7km/h 44% 0.00in /  0mm 241.0 W/m2
16:54 81.1 °F /  27.3 °C 58.5 °F /  14.7 °C 29.64in /  1003.6hPa SE 4.0mph /  6.4km/h 8.0mph /  12.9km/h 46% 0.00in /  0mm 211.0 W/m2
17:01 81.0 °F /  27.2 °C 58.3 °F /  14.6 °C 29.64in /  1003.6hPa ESE 2.0mph /  3.2km/h 6.0mph /  9.7km/h 46% 0.00in /  0mm 221.0 W/m2
17:07 80.8 °F /  27.1 °C 58.1 °F /  14.5 °C 29.64in /  1003.6hPa SSE 2.9mph /  4.7km/h 5.0mph /  8km/h 46% 0.00in /  0mm 188.0 W/m2
17:13 80.8 °F /  27.1 °C 57.4 °F /  14.1 °C 29.64in /  1003.6hPa ENE 2.9mph /  4.7km/h 8.0mph /  12.9km/h 45% 0.00in /  0mm 274.0 W/m2
17:19 80.8 °F /  27.1 °C 58.1 °F /  14.5 °C 29.63in /  1003.3hPa SE 2.0mph /  3.2km/h 5.0mph /  8km/h 46% 0.00in /  0mm 274.0 W/m2
17:25 81.1 °F /  27.3 °C 58.5 °F /  14.7 °C 29.63in /  1003.3hPa Calm   5.0mph /  8km/h 46% 0.00in /  0mm 434.0 W/m2
17:31 81.9 °F /  27.7 °C 58.5 °F /  14.7 °C 29.63in /  1003.3hPa ESE 6.0mph /  9.7km/h 8.0mph /  12.9km/h 45% 0.00in /  0mm 480.0 W/m2
17:37 82.6 °F /  28.1 °C 58.5 °F /  14.7 °C 29.63in /  1003.3hPa ESE 2.9mph /  4.7km/h 8.0mph /  12.9km/h 44% 0.00in /  0mm 424.0 W/m2
17:43 83.1 °F /  28.4 °C 58.3 °F /  14.6 °C 29.63in /  1003.3hPa ESE 4.9mph /  7.9km/h 5.0mph /  8km/h 43% 0.00in /  0mm 378.0 W/m2
17:50 83.7 °F /  28.7 °C 58.1 °F /  14.5 °C 29.63in /  1003.3hPa NE 2.9mph /  4.7km/h 8.0mph /  12.9km/h 42% 0.00in /  0mm 369.0 W/m2
17:56 84.0 °F /  28.9 °C 58.5 °F /  14.7 °C 29.63in /  1003.3hPa SE 2.0mph /  3.2km/h 6.0mph /  9.7km/h 42% 0.00in /  0mm 339.0 W/m2
18:02 84.7 °F /  29.3 °C 58.5 °F /  14.7 °C 29.63in /  1003.3hPa SSE 2.0mph /  3.2km/h 3.0mph /  4.8km/h 41% 0.00in /  0mm 311.0 W/m2
18:08 84.9 °F /  29.4 °C 58.6 °F /  14.8 °C 29.63in /  1003.3hPa ESE 2.9mph /  4.7km/h 8.0mph /  12.9km/h 41% 0.00in /  0mm 281.0 W/m2
18:14 84.6 °F /  29.2 °C 58.3 °F /  14.6 °C 29.63in /  1003.3hPa East 2.0mph /  3.2km/h 5.0mph /  8km/h 41% 0.00in /  0mm 237.0 W/m2
18:20 84.6 °F /  29.2 °C 59.0 °F /  15 °C 29.63in /  1003.3hPa East 2.0mph /  3.2km/h 8.0mph /  12.9km/h 42% 0.00in /  0mm 144.0 W/m2
18:26 83.8 °F /  28.8 °C 57.0 °F /  13.9 °C 29.63in /  1003.3hPa East 2.0mph /  3.2km/h 6.0mph /  9.7km/h 40% 0.00in /  0mm 200.0 W/m2
18:32 83.3 °F /  28.5 °C 56.5 °F /  13.6 °C 29.63in /  1003.3hPa ESE 0.9mph /  1.4km/h 8.0mph /  12.9km/h 40% 0.00in /  0mm 160.0 W/m2
18:38 82.8 °F /  28.2 °C 56.7 °F /  13.7 °C 29.63in /  1003.3hPa ENE 0.9mph /  1.4km/h 3.0mph /  4.8km/h 41% 0.00in /  0mm 40.0 W/m2
18:44 82.0 °F /  27.8 °C 57.4 °F /  14.1 °C 29.64in /  1003.6hPa ESE 4.0mph /  6.4km/h 6.0mph /  9.7km/h 43% 0.00in /  0mm 53.0 W/m2
18:50 81.0 °F /  27.2 °C 60.6 °F /  15.9 °C 29.65in /  1003.9hPa ESE 8.1mph /  13km/h 13.0mph /  20.9km/h 50% 0.00in /  0mm 28.0 W/m2
18:56 78.8 °F /  26 °C 60.3 °F /  15.7 °C 29.65in /  1003.9hPa ENE 4.9mph /  7.9km/h 13.0mph /  20.9km/h 53% 0.00in /  0mm 19.0 W/m2
19:02 77.2 °F /  25.1 °C 60.3 °F /  15.7 °C 29.65in /  1003.9hPa ENE 4.9mph /  7.9km/h 12.0mph /  19.3km/h 56% 0.00in /  0mm 12.0 W/m2
19:08 75.9 °F /  24.4 °C 60.6 °F /  15.9 °C 29.65in /  1003.9hPa NE 8.1mph /  13km/h 13.0mph /  20.9km/h 59% 0.00in /  0mm 9.0 W/m2
19:14 75.0 °F /  23.9 °C 60.3 °F /  15.7 °C 29.65in /  1003.9hPa ESE 2.9mph /  4.7km/h 11.0mph /  17.7km/h 60% 0.00in /  0mm 7.0 W/m2
19:20 74.3 °F /  23.5 °C 60.8 °F /  16 °C 29.65in /  1003.9hPa NNE 4.9mph /  7.9km/h 5.0mph /  8km/h 63% 0.00in /  0mm 5.0 W/m2
19:26 73.8 °F /  23.2 °C 60.8 °F /  16 °C 29.65in /  1003.9hPa East 4.0mph /  6.4km/h 7.0mph /  11.3km/h 64% 0.00in /  0mm 0.0 W/m2
19:32 73.6 °F /  23.1 °C 61.2 °F /  16.2 °C 29.66in /  1004.3hPa ENE 2.9mph /  4.7km/h 9.0mph /  14.5km/h 65% 0.00in /  0mm 0.0 W/m2
19:38 73.2 °F /  22.9 °C 61.2 °F /  16.2 °C 29.66in /  1004.3hPa NNE 2.9mph /  4.7km/h 5.0mph /  8km/h 66% 0.00in /  0mm 0.0 W/m2
19:44 72.9 °F /  22.7 °C 61.3 °F /  16.3 °C 29.66in /  1004.3hPa East 4.9mph /  7.9km/h 7.0mph /  11.3km/h 67% 0.00in /  0mm 0.0 W/m2
19:50 72.7 °F /  22.6 °C 61.5 °F /  16.4 °C 29.66in /  1004.3hPa Calm   1.0mph /  1.6km/h 68% 0.00in /  0mm 0.0 W/m2
19:56 72.7 °F /  22.6 °C 61.5 °F /  16.4 °C 29.67in /  1004.6hPa Calm   5.0mph /  8km/h 68% 0.00in /  0mm 0.0 W/m2
20:02 72.7 °F /  22.6 °C 61.5 °F /  16.4 °C 29.67in /  1004.6hPa NNE 0.9mph /  1.4km/h 3.0mph /  4.8km/h 68% 0.00in /  0mm 0.0 W/m2
20:08 72.3 °F /  22.4 °C 61.5 °F /  16.4 °C 29.67in /  1004.6hPa NE 2.9mph /  4.7km/h 6.0mph /  9.7km/h 69% 0.00in /  0mm 0.0 W/m2
20:14 72.3 °F /  22.4 °C 62.1 °F /  16.7 °C 29.67in /  1004.6hPa NNE 0.9mph /  1.4km/h 3.0mph /  4.8km/h 70% 0.00in /  0mm 0.0 W/m2
20:20 72.3 °F /  22.4 °C 62.1 °F /  16.7 °C 29.68in /  1005hPa Calm   3.0mph /  4.8km/h 70% 0.00in /  0mm 0.0 W/m2
20:26 72.1 °F /  22.3 °C 61.9 °F /  16.6 °C 29.68in /  1005hPa East 0.9mph /  1.4km/h 5.0mph /  8km/h 70% 0.00in /  0mm 0.0 W/m2
20:32 72.1 °F /  22.3 °C 61.9 °F /  16.6 °C 29.69in /  1005.3hPa NE 0.9mph /  1.4km/h 1.0mph /  1.6km/h 70% 0.00in /  0mm 0.0 W/m2
20:38 72.1 °F /  22.3 °C 61.9 °F /  16.6 °C 29.70in /  1005.6hPa Calm     70% 0.00in /  0mm 0.0 W/m2
20:44 72.1 °F /  22.3 °C 61.9 °F /  16.6 °C 29.70in /  1005.6hPa Calm   3.0mph /  4.8km/h 70% 0.00in /  0mm 0.0 W/m2
20:50 72.1 °F /  22.3 °C 61.9 °F /  16.6 °C 29.70in /  1005.6hPa Calm   1.0mph /  1.6km/h 70% 0.00in /  0mm 0.0 W/m2
20:56 72.1 °F /  22.3 °C 61.9 °F /  16.6 °C 29.70in /  1005.6hPa Calm   3.0mph /  4.8km/h 70% 0.00in /  0mm 0.0 W/m2
21:02 72.1 °F /  22.3 °C 61.9 °F /  16.6 °C 29.71in /  1006hPa NE 2.0mph /  3.2km/h 2.0mph /  3.2km/h 70% 0.00in /  0mm 0.0 W/m2
21:08 72.1 °F /  22.3 °C 61.9 °F /  16.6 °C 29.71in /  1006hPa NNE 2.0mph /  3.2km/h 3.0mph /  4.8km/h 70% 0.00in /  0mm 0.0 W/m2
21:14 72.1 °F /  22.3 °C 62.6 °F /  17 °C 29.72in /  1006.3hPa Calm     72% 0.00in /  0mm 0.0 W/m2
21:20 72.0 °F /  22.2 °C 62.4 °F /  16.9 °C 29.72in /  1006.3hPa Calm   1.0mph /  1.6km/h 72% 0.00in /  0mm 0.0 W/m2
21:26 71.8 °F /  22.1 °C 61.9 °F /  16.6 °C 29.72in /  1006.3hPa ENE 0.9mph /  1.4km/h 1.0mph /  1.6km/h 71% 0.00in /  0mm 0.0 W/m2
21:32 71.6 °F /  22 °C 61.7 °F /  16.5 °C 29.72in /  1006.3hPa ENE 0.9mph /  1.4km/h 2.0mph /  3.2km/h 71% 0.00in /  0mm 0.0 W/m2
21:38 71.4 °F /  21.9 °C 61.5 °F /  16.4 °C 29.72in /  1006.3hPa Calm   1.0mph /  1.6km/h 71% 0.00in /  0mm 0.0 W/m2
21:44 71.4 °F /  21.9 °C 61.9 °F /  16.6 °C 29.72in /  1006.3hPa Calm   4.0mph /  6.4km/h 72% 0.00in /  0mm 0.0 W/m2
21:50 71.2 °F /  21.8 °C 61.7 °F /  16.5 °C 29.73in /  1006.7hPa Calm   3.0mph /  4.8km/h 72% 0.00in /  0mm 0.0 W/m2
21:56 71.1 °F /  21.7 °C 61.9 °F /  16.6 °C 29.73in /  1006.7hPa Calm   1.0mph /  1.6km/h 73% 0.00in /  0mm 0.0 W/m2
22:02 71.1 °F /  21.7 °C 61.9 °F /  16.6 °C 29.73in /  1006.7hPa North 2.0mph /  3.2km/h 2.0mph /  3.2km/h 73% 0.00in /  0mm 0.0 W/m2
22:08 70.9 °F /  21.6 °C 62.2 °F /  16.8 °C 29.73in /  1006.7hPa NNE 2.0mph /  3.2km/h 4.0mph /  6.4km/h 74% 0.00in /  0mm 0.0 W/m2
22:14 70.5 °F /  21.4 °C 62.2 °F /  16.8 °C 29.73in /  1006.7hPa North 2.9mph /  4.7km/h 3.0mph /  4.8km/h 75% 0.00in /  0mm 0.0 W/m2
22:20 70.5 °F /  21.4 °C 62.2 °F /  16.8 °C 29.73in /  1006.7hPa Calm   2.0mph /  3.2km/h 75% 0.00in /  0mm 0.0 W/m2
22:26 70.3 °F /  21.3 °C 62.1 °F /  16.7 °C 29.73in /  1006.7hPa Calm   2.0mph /  3.2km/h 75% 0.00in /  0mm 0.0 W/m2
22:32 70.3 °F /  21.3 °C 62.1 °F /  16.7 °C 29.73in /  1006.7hPa Calm   2.0mph /  3.2km/h 75% 0.00in /  0mm 0.0 W/m2
22:38 70.2 °F /  21.2 °C 62.2 °F /  16.8 °C 29.72in /  1006.3hPa Calm     76% 0.00in /  0mm 0.0 W/m2
22:44 70.2 °F /  21.2 °C 62.2 °F /  16.8 °C 29.73in /  1006.7hPa Calm     76% 0.00in /  0mm 0.0 W/m2
22:50 70.0 °F /  21.1 °C 62.4 °F /  16.9 °C 29.73in /  1006.7hPa Calm     77% 0.00in /  0mm 0.0 W/m2
22:56 69.8 °F /  21 °C 62.2 °F /  16.8 °C 29.73in /  1006.7hPa Calm     77% 0.00in /  0mm 0.0 W/m2
23:02 69.6 °F /  20.9 °C 62.1 °F /  16.7 °C 29.74in /  1007hPa Calm     77% 0.00in /  0mm 0.0 W/m2
23:08 69.4 °F /  20.8 °C 61.9 °F /  16.6 °C 29.74in /  1007hPa Calm     77% 0.00in /  0mm 0.0 W/m2
23:15 69.4 °F /  20.8 °C 62.2 °F /  16.8 °C 29.74in /  1007hPa Calm     78% 0.00in /  0mm 0.0 W/m2
23:21 69.4 °F /  20.8 °C 62.2 °F /  16.8 °C 29.74in /  1007hPa Calm     78% 0.00in /  0mm 0.0 W/m2
23:27 69.3 °F /  20.7 °C 62.1 °F /  16.7 °C 29.74in /  1007hPa Calm     78% 0.00in /  0mm 0.0 W/m2
23:33 69.3 °F /  20.7 °C 61.7 °F /  16.5 °C 29.74in /  1007hPa Calm     77% 0.00in /  0mm 0.0 W/m2
23:39 69.1 °F /  20.6 °C 61.2 °F /  16.2 °C 29.74in /  1007hPa Calm   4.0mph /  6.4km/h 76% 0.00in /  0mm 0.0 W/m2
23:45 69.1 °F /  20.6 °C 61.2 °F /  16.2 °C 29.74in /  1007hPa Calm   2.0mph /  3.2km/h 76% 0.00in /  0mm 0.0 W/m2
23:51 69.1 °F /  20.6 °C 61.2 °F /  16.2 °C 29.74in /  1007hPa NNE 0.9mph /  1.4km/h 2.0mph /  3.2km/h 76% 0.00in /  0mm 0.0 W/m2
23:57 69.1 °F /  20.6 °C 60.8 °F /  16 °C 29.74in /  1007hPa ENE 2.9mph /  4.7km/h 5.0mph /  8km/h 75% 0.00in /  0mm 0.0 W/m2
Olympia, Windhoek, Namibia
Compliments of Weather Underground - 3 mb